Time;durP1;ratioP1;P1;durP2;ratioP2;P2;SDS_P1;SDS_P2;PMS_P1;PMS_P2;Temp;Humidity;BMP_temperature;BMP_pressure;BME280_temperature;BME280_humidity;BME280_pressure;Samples;Min_cycle;Max_cycle;Signal;HPM_P1;HPM_P2
2021/09/22 00:00:25;;;;;;;;;;;8.80;98.60;;;;;;5038335;28;19917;-78
2021/09/22 00:02:51;;;;;;;;;;;8.80;98.50;;;;;;5056887;28;19920;-78
2021/09/22 00:05:17;;;;;;;;;;;8.80;98.50;;;;;;5056654;28;20340;-78
2021/09/22 00:07:42;;;;;;;;;;;8.80;98.50;;;;;;5056828;28;19913;-78
2021/09/22 00:10:11;;;;;;;;;;;8.90;98.30;;;;;;5056634;28;20268;-78
2021/09/22 00:12:36;;;;;;;;;;;8.80;98.00;;;;;;5056549;28;19913;-78
2021/09/22 00:15:03;;;;;;;;;;;8.80;97.80;;;;;;5056375;28;20054;-77
2021/09/22 00:17:28;;;;;;;;;;;8.80;98.00;;;;;;5055861;28;19971;-78
2021/09/22 00:19:54;;;;;;;;;;;8.70;98.50;;;;;;5056604;28;20333;-77
2021/09/22 00:22:19;;;;;;;;;;;8.80;98.20;;;;;;5056819;28;20363;-77
2021/09/22 00:24:45;;;;;;;;;;;8.70;98.10;;;;;;5056362;28;19913;-77
2021/09/22 00:27:10;;;;;;;;;;;8.70;98.50;;;;;;5056946;28;19945;-78
2021/09/22 00:29:36;;;;;;;;;;;8.70;98.70;;;;;;5056433;28;20416;-78
2021/09/22 00:32:02;;;;;;;;;;;8.70;98.60;;;;;;5056729;28;19942;-78
2021/09/22 00:34:27;;;;;;;;;;;8.70;98.70;;;;;;5038199;28;20226;-78
2021/09/22 00:36:53;;;;;;;;;;;8.70;98.70;;;;;;5056529;28;19924;-77
2021/09/22 00:39:18;;;;;;;;;;;8.70;98.70;;;;;;5056163;28;20005;-78
2021/09/22 00:41:44;;;;;;;;;;;8.70;98.60;;;;;;5056388;28;19924;-78
2021/09/22 00:44:09;;;;;;;;;;;8.70;98.50;;;;;;5056106;28;19912;-78
2021/09/22 00:46:35;;;;;;;;;;;8.70;98.60;;;;;;5056275;28;19920;-78
2021/09/22 00:49:00;;;;;;;;;;;8.70;98.90;;;;;;5055538;28;19958;-78
2021/09/22 00:51:26;;;;;;;;;;;8.70;99.10;;;;;;5055763;28;19966;-78
2021/09/22 00:53:52;;;;;;;;;;;8.70;98.80;;;;;;5055882;28;20271;-78
2021/09/22 00:56:17;;;;;;;;;;;8.70;99.00;;;;;;5055907;28;19921;-78
2021/09/22 00:58:43;;;;;;;;;;;8.70;99.40;;;;;;5055778;28;19912;-78
2021/09/22 01:01:08;;;;;;;;;;;8.70;99.00;;;;;;5057091;28;19912;-72
2021/09/22 01:03:34;;;;;;;;;;;8.70;99.30;;;;;;5055644;28;19958;-72
2021/09/22 01:06:00;;;;;;;;;;;8.70;99.10;;;;;;5055753;28;19963;-73
2021/09/22 01:08:27;;;;;;;;;;;8.70;99.40;;;;;;5055552;28;19909;-72
2021/09/22 01:10:53;;;;;;;;;;;8.70;99.20;;;;;;5055585;28;19947;-72
2021/09/22 01:13:19;;;;;;;;;;;8.70;99.20;;;;;;5055534;28;19913;-71
2021/09/22 01:15:45;;;;;;;;;;;8.60;99.00;;;;;;5055446;28;19928;-72
2021/09/22 01:18:15;;;;;;;;;;;8.60;99.20;;;;;;5055369;28;20290;-72
2021/09/22 01:20:41;;;;;;;;;;;8.60;99.20;;;;;;5037271;28;19920;-72
2021/09/22 01:23:08;;;;;;;;;;;8.60;99.90;;;;;;5037452;28;19956;-72
2021/09/22 01:25:35;;;;;;;;;;;8.60;99.80;;;;;;5055361;28;19935;-72
2021/09/22 01:28:02;;;;;;;;;;;8.60;99.40;;;;;;5055130;28;20033;-72
2021/09/22 01:30:28;;;;;;;;;;;8.60;99.90;;;;;;5055277;28;20015;-72
2021/09/22 01:33:01;;;;;;;;;;;8.60;99.90;;;;;;5037141;28;20003;-72
2021/09/22 01:35:32;;;;;;;;;;;8.60;99.90;;;;;;5055097;28;19932;-72
2021/09/22 01:37:58;;;;;;;;;;;8.60;99.90;;;;;;5055009;28;19999;-72
2021/09/22 01:40:23;;;;;;;;;;;8.60;99.90;;;;;;5054958;28;19952;-72
2021/09/22 01:42:49;;;;;;;;;;;8.60;99.90;;;;;;5036983;28;19919;-72
2021/09/22 01:45:15;;;;;;;;;;;8.60;99.90;;;;;;5054907;28;19913;-72
2021/09/22 01:47:41;;;;;;;;;;;8.60;99.90;;;;;;5054754;28;19913;-72
2021/09/22 01:50:08;;;;;;;;;;;8.60;99.90;;;;;;5036860;28;19915;-72
2021/09/22 01:52:35;;;;;;;;;;;8.60;99.90;;;;;;5054706;28;19917;-72
2021/09/22 01:55:01;;;;;;;;;;;8.60;99.90;;;;;;5036573;28;19956;-72
2021/09/22 01:57:27;;;;;;;;;;;8.50;99.90;;;;;;5054563;28;19913;-72
2021/09/22 01:59:53;;;;;;;;;;;8.60;99.90;;;;;;5035861;28;19951;-72
2021/09/22 02:02:18;;;;;;;;;;;8.60;99.90;;;;;;5037949;28;19921;-78
2021/09/22 02:04:44;;;;;;;;;;;8.60;99.90;;;;;;5054370;28;19912;-77
2021/09/22 02:07:09;;;;;;;;;;;8.60;99.90;;;;;;5054957;28;19924;-78
2021/09/22 02:09:35;;;;;;;;;;;8.60;99.90;;;;;;5054467;28;20387;-77
2021/09/22 02:12:00;;;;;;;;;;;8.60;99.90;;;;;;5054694;28;20364;-78
2021/09/22 02:14:26;;;;;;;;;;;8.60;99.90;;;;;;5054278;28;19909;-77
2021/09/22 02:16:52;;;;;;;;;;;8.60;99.90;;;;;;5054567;28;20313;-77
2021/09/22 02:19:19;;;;;;;;;;;8.60;99.90;;;;;;5036407;28;19909;-78
2021/09/22 02:21:44;;;;;;;;;;;8.60;99.90;;;;;;5054563;28;19920;-77
2021/09/22 02:24:10;;;;;;;;;;;8.60;99.90;;;;;;5054142;28;19909;-78
2021/09/22 02:26:35;;;;;;;;;;;8.60;99.90;;;;;;5054395;28;19923;-77
2021/09/22 02:29:01;;;;;;;;;;;8.60;99.90;;;;;;5054032;28;19948;-78
2021/09/22 02:31:26;;;;;;;;;;;8.60;99.90;;;;;;5054387;28;20323;-77
2021/09/22 02:33:51;;;;;;;;;;;8.60;99.90;;;;;;5053988;28;20402;-77
2021/09/22 02:36:17;;;;;;;;;;;8.60;99.90;;;;;;5036001;28;19925;-78
2021/09/22 02:38:42;;;;;;;;;;;8.60;99.90;;;;;;5053912;28;19954;-77
2021/09/22 02:41:08;;;;;;;;;;;8.60;99.90;;;;;;5053847;28;20016;-78
2021/09/22 02:43:34;;;;;;;;;;;8.60;99.90;;;;;;5035983;28;19913;-78
2021/09/22 02:45:59;;;;;;;;;;;8.60;99.90;;;;;;5053899;28;20374;-78
2021/09/22 02:48:25;;;;;;;;;;;8.60;99.90;;;;;;5053696;28;19913;-76
2021/09/22 02:50:51;;;;;;;;;;;8.60;99.90;;;;;;5035811;28;19917;-78
2021/09/22 02:53:17;;;;;;;;;;;8.60;99.90;;;;;;5053676;28;20347;-78
2021/09/22 02:55:43;;;;;;;;;;;8.60;99.90;;;;;;5035680;28;19931;-78
2021/09/22 02:58:08;;;;;;;;;;;8.60;99.90;;;;;;5053562;28;20378;-77
2021/09/22 03:00:34;;;;;;;;;;;8.60;99.80;;;;;;5053637;28;21578;-78
2021/09/22 03:02:59;;;;;;;;;;;8.60;99.60;;;;;;5037098;28;19920;-72
2021/09/22 03:05:25;;;;;;;;;;;8.50;99.90;;;;;;5053553;28;19917;-72
2021/09/22 03:07:50;;;;;;;;;;;8.50;99.90;;;;;;5053356;28;19909;-72
2021/09/22 03:10:19;;;;;;;;;;;8.50;99.70;;;;;;5053179;28;20275;-72
2021/09/22 03:12:44;;;;;;;;;;;8.50;99.90;;;;;;5053475;28;20382;-71
2021/09/22 03:15:10;;;;;;;;;;;8.50;99.90;;;;;;5053311;28;19924;-72
2021/09/22 03:17:35;;;;;;;;;;;8.50;99.90;;;;;;5035434;28;19909;-71
2021/09/22 03:20:01;;;;;;;;;;;8.50;99.90;;;;;;5053224;28;19909;-72
2021/09/22 03:22:27;;;;;;;;;;;8.50;99.90;;;;;;5053235;28;19908;-72
2021/09/22 03:24:53;;;;;;;;;;;8.50;99.90;;;;;;5053241;28;19952;-72
2021/09/22 03:27:18;;;;;;;;;;;8.50;99.90;;;;;;5053753;28;20002;-72
2021/09/22 03:29:44;;;;;;;;;;;8.50;99.90;;;;;;5035346;28;20073;-72
2021/09/22 03:32:09;;;;;;;;;;;8.50;99.90;;;;;;5053878;28;19917;-72
2021/09/22 03:34:35;;;;;;;;;;;8.50;99.90;;;;;;5053206;28;19909;-71
2021/09/22 03:37:00;;;;;;;;;;;8.50;99.90;;;;;;5053571;28;19927;-72
2021/09/22 03:39:26;;;;;;;;;;;8.50;99.90;;;;;;5053114;28;19968;-72
2021/09/22 03:41:51;;;;;;;;;;;8.50;99.90;;;;;;5053458;28;20011;-71
2021/09/22 03:44:17;;;;;;;;;;;8.50;99.90;;;;;;5053061;28;19948;-72
2021/09/22 03:46:42;;;;;;;;;;;8.60;99.90;;;;;;5053385;28;19916;-72
2021/09/22 03:49:08;;;;;;;;;;;8.50;99.90;;;;;;5053065;28;19932;-71
2021/09/22 03:51:33;;;;;;;;;;;8.50;99.90;;;;;;5053370;28;19921;-72
2021/09/22 03:53:59;;;;;;;;;;;8.60;99.90;;;;;;5052966;28;19958;-72
2021/09/22 03:56:24;;;;;;;;;;;8.60;99.90;;;;;;5035123;28;20285;-72
2021/09/22 03:58:50;;;;;;;;;;;8.60;99.70;;;;;;5052971;28;19908;-72
2021/09/22 04:01:16;;;;;;;;;;;8.50;99.80;;;;;;5063624;23;19924;-76
2021/09/22 04:03:42;;;;;;;;;;;8.60;99.90;;;;;;5052438;28;20302;-76
2021/09/22 04:06:07;;;;;;;;;;;8.60;99.90;;;;;;5053004;28;19912;-75
2021/09/22 04:08:33;;;;;;;;;;;8.60;99.80;;;;;;5050884;28;19978;-76
2021/09/22 04:10:59;;;;;;;;;;;8.60;99.70;;;;;;5050662;28;20774;-77
2021/09/22 04:13:24;;;;;;;;;;;8.70;99.50;;;;;;5052319;28;19928;-76
2021/09/22 04:15:50;;;;;;;;;;;8.70;99.30;;;;;;5052622;28;19939;-76
2021/09/22 04:18:15;;;;;;;;;;;8.70;99.40;;;;;;5051659;28;19920;-76
2021/09/22 04:20:41;;;;;;;;;;;8.70;98.80;;;;;;5052345;28;19948;-76
2021/09/22 04:23:07;;;;;;;;;;;8.70;98.80;;;;;;5053099;28;19963;-76
2021/09/22 04:25:32;;;;;;;;;;;8.70;99.00;;;;;;5055111;28;19913;-76
2021/09/22 04:27:58;;;;;;;;;;;8.70;98.60;;;;;;5056736;28;20012;-76
2021/09/22 04:30:23;;;;;;;;;;;8.70;98.90;;;;;;5056242;28;19913;-76
2021/09/22 04:32:49;;;;;;;;;;;8.70;98.60;;;;;;5056458;28;19919;-76
2021/09/22 04:35:14;;;;;;;;;;;8.70;98.70;;;;;;5054860;28;19967;-76
2021/09/22 04:37:41;;;;;;;;;;;8.70;98.60;;;;;;5056448;28;19984;-76
2021/09/22 04:40:08;;;;;;;;;;;8.70;98.60;;;;;;5055933;28;19912;-76
2021/09/22 04:42:33;;;;;;;;;;;8.70;98.40;;;;;;5054185;28;20227;-76
2021/09/22 04:44:59;;;;;;;;;;;8.70;98.30;;;;;;5054391;28;19924;-76
2021/09/22 04:47:25;;;;;;;;;;;8.70;98.40;;;;;;5055818;28;19917;-76
2021/09/22 04:49:50;;;;;;;;;;;8.70;98.70;;;;;;5054198;28;19999;-76
2021/09/22 04:52:16;;;;;;;;;;;8.70;98.70;;;;;;5053886;28;19920;-76
2021/09/22 04:54:41;;;;;;;;;;;8.80;98.80;;;;;;5053647;28;20003;-76
2021/09/22 04:57:07;;;;;;;;;;;8.80;98.50;;;;;;5054579;28;19913;-76
2021/09/22 04:59:33;;;;;;;;;;;8.80;98.20;;;;;;5053595;28;20385;-75
2021/09/22 05:01:58;;;;;;;;;;;8.80;98.40;;;;;;5065921;23;19931;-77
2021/09/22 05:04:24;;;;;;;;;;;8.90;99.00;;;;;;5055049;28;20381;-77
2021/09/22 05:06:49;;;;;;;;;;;9.00;98.80;;;;;;5055604;28;19916;-78
2021/09/22 05:09:15;;;;;;;;;;;9.10;98.50;;;;;;5053796;28;19909;-80
2021/09/22 05:11:43;;;;;;;;;;;9.20;97.60;;;;;;5054858;28;19917;-78
2021/09/22 05:14:08;;;;;;;;;;;9.30;97.60;;;;;;5054164;28;19924;-77
2021/09/22 05:16:34;;;;;;;;;;;9.40;97.00;;;;;;5052704;28;19925;-78
2021/09/22 05:18:59;;;;;;;;;;;9.50;96.90;;;;;;5053126;28;19954;-78
2021/09/22 05:21:25;;;;;;;;;;;9.70;96.50;;;;;;5050323;28;19917;-79
2021/09/22 05:23:51;;;;;;;;;;;9.80;96.50;;;;;;5051911;28;19954;-80
2021/09/22 05:26:16;;;;;;;;;;;9.90;95.20;;;;;;5052175;28;20079;-80
2021/09/22 05:28:42;;;;;;;;;;;10.00;94.40;;;;;;5051148;28;19909;-74
2021/09/22 05:31:07;;;;;;;;;;;10.10;94.00;;;;;;5050618;28;20358;-80
2021/09/22 05:33:33;;;;;;;;;;;10.10;93.00;;;;;;5048500;28;19909;-76
2021/09/22 05:35:58;;;;;;;;;;;10.10;92.60;;;;;;5048392;28;19928;-75
2021/09/22 05:38:24;;;;;;;;;;;10.00;91.90;;;;;;5048752;28;20012;-74
2021/09/22 05:40:50;;;;;;;;;;;9.90;92.00;;;;;;5051604;28;19915;-73
2021/09/22 05:43:15;;;;;;;;;;;9.90;92.10;;;;;;5051522;28;19967;-75
2021/09/22 05:45:41;;;;;;;;;;;9.90;91.80;;;;;;5050072;28;19916;-72
2021/09/22 05:48:06;;;;;;;;;;;9.90;92.20;;;;;;5052109;28;20417;-70
2021/09/22 05:50:32;;;;;;;;;;;10.00;92.20;;;;;;5051536;28;20031;-71
2021/09/22 05:52:58;;;;;;;;;;;10.10;92.00;;;;;;5049992;28;19917;-72
2021/09/22 05:55:24;;;;;;;;;;;10.20;91.80;;;;;;5048707;28;20367;-73
2021/09/22 05:57:50;;;;;;;;;;;10.20;91.20;;;;;;5051624;28;20011;-73
2021/09/22 06:00:16;;;;;;;;;;;10.20;90.70;;;;;;5050236;28;19913;-73
2021/09/22 06:02:42;;;;;;;;;;;10.20;90.80;;;;;;5035303;23;20348;-77
2021/09/22 06:05:08;;;;;;;;;;;10.20;90.70;;;;;;4994716;28;19955;-73
2021/09/22 06:07:34;;;;;;;;;;;10.20;90.60;;;;;;5013011;28;20348;-78
2021/09/22 06:10:00;;;;;;;;;;;10.40;90.80;;;;;;5012649;28;19914;-76
2021/09/22 06:12:26;;;;;;;;;;;10.50;90.90;;;;;;5012956;28;19943;-76
2021/09/22 06:14:53;;;;;;;;;;;10.60;90.00;;;;;;5011753;28;19956;-75
2021/09/22 06:17:21;;;;;;;;;;;10.70;90.00;;;;;;5009761;28;20387;-75
2021/09/22 06:19:48;;;;;;;;;;;10.70;87.40;;;;;;5009732;28;20376;-72
2021/09/22 06:22:13;;;;;;;;;;;10.60;87.00;;;;;;5006819;28;20063;-77
2021/09/22 06:24:40;;;;;;;;;;;10.60;88.10;;;;;;5006245;28;19917;-79
2021/09/22 06:27:06;;;;;;;;;;;10.60;87.10;;;;;;5004730;28;19917;-82
2021/09/22 06:29:31;;;;;;;;;;;10.50;86.50;;;;;;5007263;28;19916;-83
2021/09/22 06:31:57;;;;;;;;;;;10.50;86.80;;;;;;5006369;28;20442;-81
2021/09/22 06:34:23;;;;;;;;;;;10.50;86.60;;;;;;5005012;28;19956;-80
2021/09/22 06:36:48;;;;;;;;;;;10.40;86.10;;;;;;5007098;28;19953;-85
2021/09/22 06:39:14;;;;;;;;;;;10.40;86.50;;;;;;5008096;28;19917;-74
2021/09/22 06:41:40;;;;;;;;;;;10.50;87.40;;;;;;5010240;28;20583;-77
2021/09/22 06:44:06;;;;;;;;;;;10.60;87.20;;;;;;5007609;28;19956;-76
2021/09/22 06:46:32;;;;;;;;;;;10.60;86.30;;;;;;5007684;28;20027;-76
2021/09/22 06:48:58;;;;;;;;;;;10.70;86.20;;;;;;5009703;28;20282;-75
2021/09/22 06:51:23;;;;;;;;;;;10.80;86.00;;;;;;5006299;28;19917;-79
2021/09/22 06:53:52;;;;;;;;;;;10.80;85.20;;;;;;5007541;28;19909;-75
2021/09/22 06:56:18;;;;;;;;;;;10.90;84.90;;;;;;5009725;28;20344;-75
2021/09/22 06:58:44;;;;;;;;;;;11.00;83.90;;;;;;5009128;28;20582;-81
2021/09/22 07:01:09;;;;;;;;;;;11.10;83.50;;;;;;5010872;28;20296;-77
2021/09/22 07:03:35;;;;;;;;;;;11.20;83.20;;;;;;5012747;28;19918;-76
2021/09/22 07:06:02;;;;;;;;;;;11.30;83.50;;;;;;5011582;28;19921;-82
2021/09/22 07:08:34;;;;;;;;;;;11.40;83.20;;;;;;5010295;28;20360;-76
2021/09/22 07:11:02;;;;;;;;;;;11.50;82.70;;;;;;5011525;28;19920;-77
2021/09/22 07:13:28;;;;;;;;;;;11.50;81.80;;;;;;5008260;28;20007;-77
2021/09/22 07:15:54;;;;;;;;;;;11.50;81.80;;;;;;5007616;28;19988;-78
2021/09/22 07:18:21;;;;;;;;;;;11.60;81.90;;;;;;5006006;28;19927;-82
2021/09/22 07:20:50;;;;;;;;;;;11.60;81.60;;;;;;5008366;28;19920;-80
2021/09/22 07:23:16;;;;;;;;;;;11.60;81.00;;;;;;5009026;28;19909;-80
2021/09/22 07:25:42;;;;;;;;;;;11.40;80.70;;;;;;5006102;28;19967;-79
2021/09/22 07:28:08;;;;;;;;;;;11.40;80.90;;;;;;5004882;28;19909;-77
2021/09/22 07:30:34;;;;;;;;;;;11.40;81.00;;;;;;5007397;28;19919;-80
2021/09/22 07:33:08;;;;;;;;;;;11.30;80.90;;;;;;5007024;28;20342;-82
2021/09/22 07:35:34;;;;;;;;;;;11.20;80.80;;;;;;5008386;28;19929;-83
2021/09/22 07:38:01;;;;;;;;;;;11.20;81.40;;;;;;5010664;28;19920;-79
2021/09/22 07:40:27;;;;;;;;;;;11.20;81.10;;;;;;5011041;28;20376;-78
2021/09/22 07:42:53;;;;;;;;;;;11.10;81.40;;;;;;5011680;28;19964;-76
2021/09/22 07:45:19;;;;;;;;;;;11.20;81.70;;;;;;5011219;28;19913;-78
2021/09/22 07:47:45;;;;;;;;;;;11.20;81.70;;;;;;5011394;28;19920;-78
2021/09/22 07:50:12;;;;;;;;;;;11.20;81.90;;;;;;5010455;28;20013;-79
2021/09/22 07:52:37;;;;;;;;;;;11.20;81.70;;;;;;5010821;28;19914;-80
2021/09/22 07:55:04;;;;;;;;;;;11.30;82.10;;;;;;5009628;28;20427;-82
2021/09/22 07:57:30;;;;;;;;;;;11.30;81.90;;;;;;5010648;28;19921;-83
2021/09/22 07:59:56;;;;;;;;;;;11.40;82.20;;;;;;5014457;28;19918;-78
2021/09/22 08:02:22;;;;;;;;;;;11.50;81.80;;;;;;5015429;28;19929;-76
2021/09/22 08:04:48;;;;;;;;;;;11.60;81.70;;;;;;5012944;28;19980;-83
2021/09/22 08:07:15;;;;;;;;;;;11.60;81.10;;;;;;5012955;28;20270;-81
2021/09/22 08:09:41;;;;;;;;;;;11.60;80.60;;;;;;5013949;28;19918;-78
2021/09/22 08:12:07;;;;;;;;;;;11.60;80.40;;;;;;5014503;28;20008;-77
2021/09/22 08:14:36;;;;;;;;;;;11.60;81.00;;;;;;5010449;28;20431;-75
2021/09/22 08:17:02;;;;;;;;;;;11.70;80.20;;;;;;5009397;28;19918;-78
2021/09/22 08:19:28;;;;;;;;;;;11.80;80.50;;;;;;5011588;28;19922;-77
2021/09/22 08:21:55;;;;;;;;;;;11.80;80.10;;;;;;5009303;28;20539;-81
2021/09/22 08:24:21;;;;;;;;;;;12.00;80.00;;;;;;5008602;28;19969;-79
2021/09/22 08:26:48;;;;;;;;;;;12.00;79.50;;;;;;5008397;28;20486;-79
2021/09/22 08:29:14;;;;;;;;;;;12.00;79.10;;;;;;4992806;28;19940;-80
2021/09/22 08:31:40;;;;;;;;;;;11.90;78.20;;;;;;5008582;28;20411;-78
2021/09/22 08:34:06;;;;;;;;;;;11.70;78.10;;;;;;5008280;28;19945;-82
2021/09/22 08:36:31;;;;;;;;;;;11.50;79.00;;;;;;5011120;28;19969;-80
2021/09/22 08:38:57;;;;;;;;;;;11.40;79.70;;;;;;5012739;28;19918;-83
2021/09/22 08:41:23;;;;;;;;;;;11.30;79.40;;;;;;5009772;28;19910;-80
2021/09/22 08:43:49;;;;;;;;;;;11.20;79.70;;;;;;5009094;28;19924;-80
2021/09/22 08:46:17;;;;;;;;;;;11.20;80.10;;;;;;5013461;28;19910;-84
2021/09/22 08:48:43;;;;;;;;;;;11.30;80.70;;;;;;5013725;28;19960;-83
2021/09/22 08:51:09;;;;;;;;;;;11.40;80.40;;;;;;5014315;28;20283;-84
2021/09/22 08:53:34;;;;;;;;;;;11.50;80.40;;;;;;5013342;28;20017;-80
2021/09/22 08:56:01;;;;;;;;;;;11.60;80.10;;;;;;5013549;28;20024;-81
2021/09/22 08:58:28;;;;;;;;;;;11.90;79.70;;;;;;5012526;28;20417;-79
2021/09/22 09:00:53;;;;;;;;;;;12.10;79.20;;;;;;5011949;28;20355;-81
2021/09/22 09:03:33;;;;;;;;;;;12.20;78.50;;;;;;5014884;28;20514;-78
2021/09/22 09:06:19;;;;;;;;;;;12.40;77.50;;;;;;5007944;28;19917;-82
2021/09/22 09:08:45;;;;;;;;;;;12.60;76.50;;;;;;5008667;28;20555;-77
2021/09/22 09:11:13;;;;;;;;;;;12.70;75.40;;;;;;5010103;28;20016;-83
2021/09/22 09:13:48;;;;;;;;;;;12.80;76.10;;;;;;5014066;28;19909;-83
2021/09/22 09:16:17;;;;;;;;;;;13.00;76.40;;;;;;5014034;28;19948;-85
2021/09/22 09:18:48;;;;;;;;;;;13.10;75.70;;;;;;5011835;28;20421;-78
2021/09/22 09:21:14;;;;;;;;;;;13.30;75.60;;;;;;5008890;28;19918;-75
2021/09/22 09:23:50;;;;;;;;;;;13.50;75.00;;;;;;5012632;28;20358;-76
2021/09/22 09:26:18;;;;;;;;;;;13.70;74.50;;;;;;5012363;28;19997;-75
2021/09/22 09:28:48;;;;;;;;;;;13.90;73.70;;;;;;5012632;28;19910;-78
2021/09/22 09:31:13;;;;;;;;;;;14.00;73.80;;;;;;5010655;28;19943;-75
2021/09/22 09:33:44;;;;;;;;;;;14.00;72.30;;;;;;5009533;28;20397;-77
2021/09/22 09:36:16;;;;;;;;;;;14.00;71.10;;;;;;5008901;28;19925;-80
2021/09/22 09:38:54;;;;;;;;;;;14.10;72.80;;;;;;5008341;28;19909;-76
2021/09/22 09:41:50;;;;;;;;;;;14.00;71.70;;;;;;5009494;28;20300;-76
2021/09/22 09:44:21;;;;;;;;;;;14.00;72.50;;;;;;4993648;28;19910;-78
2021/09/22 09:46:47;;;;;;;;;;;13.90;72.50;;;;;;5013558;28;19917;-79
2021/09/22 09:49:15;;;;;;;;;;;13.80;71.80;;;;;;5011170;28;20023;-78
2021/09/22 09:51:45;;;;;;;;;;;13.70;71.30;;;;;;5009425;28;20414;-76
2021/09/22 09:54:13;;;;;;;;;;;13.50;70.30;;;;;;5012410;28;19940;-75
2021/09/22 09:56:38;;;;;;;;;;;13.40;71.00;;;;;;5010982;28;19929;-76
2021/09/22 09:59:04;;;;;;;;;;;13.30;71.00;;;;;;5006845;28;20434;-73
2021/09/22 10:01:54;;;;;;;;;;;13.20;71.90;;;;;;5010466;28;20252;-81
2021/09/22 10:04:24;;;;;;;;;;;13.10;71.60;;;;;;5007268;28;19973;-85
2021/09/22 10:06:50;;;;;;;;;;;13.10;72.00;;;;;;5008306;28;19965;-77
2021/09/22 10:09:16;;;;;;;;;;;13.10;71.70;;;;;;5010316;28;20089;-79
2021/09/22 10:11:45;;;;;;;;;;;13.00;72.20;;;;;;5009848;28;20363;-85
2021/09/22 10:14:12;;;;;;;;;;;13.10;72.60;;;;;;5012209;28;20367;-81
2021/09/22 10:16:37;;;;;;;;;;;13.20;72.60;;;;;;5010837;28;19926;-77
2021/09/22 10:19:05;;;;;;;;;;;13.30;72.70;;;;;;5008909;28;20268;-76
2021/09/22 10:21:33;;;;;;;;;;;13.30;70.90;;;;;;5007722;28;19920;-78
2021/09/22 10:24:00;;;;;;;;;;;13.50;72.10;;;;;;5010342;28;19913;-78
2021/09/22 10:26:31;;;;;;;;;;;13.80;71.50;;;;;;5010339;28;20437;-80
2021/09/22 10:29:00;;;;;;;;;;;14.00;70.60;;;;;;5011791;28;20036;-77
2021/09/22 10:31:29;;;;;;;;;;;14.00;70.30;;;;;;5010265;28;19960;-79
2021/09/22 10:33:56;;;;;;;;;;;13.80;70.00;;;;;;5009623;28;19920;-79
2021/09/22 10:36:34;;;;;;;;;;;13.70;70.20;;;;;;5006865;28;19948;-75
2021/09/22 10:39:04;;;;;;;;;;;13.40;69.90;;;;;;5005809;28;20003;-84
2021/09/22 10:41:36;;;;;;;;;;;13.10;70.50;;;;;;5007408;28;19913;-87
2021/09/22 10:44:06;;;;;;;;;;;12.80;70.70;;;;;;5008569;28;20015;-83
2021/09/22 10:46:34;;;;;;;;;;;12.60;71.40;;;;;;5009332;28;19914;-83
2021/09/22 10:49:07;;;;;;;;;;;12.50;72.10;;;;;;5009862;28;19971;-87
2021/09/22 10:51:33;;;;;;;;;;;12.30;72.10;;;;;;5008548;28;19978;-85
2021/09/22 10:54:05;;;;;;;;;;;12.20;72.60;;;;;;5009052;28;19996;-83
2021/09/22 10:56:30;;;;;;;;;;;12.10;72.30;;;;;;5010312;28;19921;-84
2021/09/22 10:58:58;;;;;;;;;;;12.10;72.70;;;;;;5010374;28;19920;-81
2021/09/22 11:01:32;;;;;;;;;;;12.00;72.70;;;;;;5012183;28;19918;-86
2021/09/22 11:04:09;;;;;;;;;;;11.90;73.00;;;;;;5013345;28;19968;-82
2021/09/22 11:06:44;;;;;;;;;;;11.80;73.00;;;;;;5007287;28;19917;-85
2021/09/22 11:09:26;;;;;;;;;;;11.70;73.40;;;;;;5010193;28;19957;-82
2021/09/22 11:12:03;;;;;;;;;;;11.60;73.80;;;;;;5009994;28;20363;-78
2021/09/22 11:14:32;;;;;;;;;;;11.60;74.10;;;;;;5009882;28;19928;-80
2021/09/22 11:16:59;;;;;;;;;;;11.60;74.60;;;;;;5008655;28;19926;-82
2021/09/22 11:19:25;;;;;;;;;;;11.70;74.50;;;;;;5009350;28;19913;-80
2021/09/22 11:21:51;;;;;;;;;;;11.80;74.60;;;;;;5008174;28;20360;-81
2021/09/22 11:24:20;;;;;;;;;;;11.80;74.40;;;;;;5009250;28;19941;-80
2021/09/22 11:26:50;;;;;;;;;;;12.00;74.60;;;;;;5008155;28;19924;-84
2021/09/22 11:29:35;;;;;;;;;;;12.20;74.70;;;;;;5007480;28;20017;-83
2021/09/22 11:32:02;;;;;;;;;;;12.40;74.30;;;;;;5007957;28;19921;-79
2021/09/22 11:34:32;;;;;;;;;;;12.60;73.60;;;;;;5012127;28;20395;-80
2021/09/22 11:37:05;;;;;;;;;;;12.60;72.60;;;;;;5009143;28;19969;-80
2021/09/22 11:39:30;;;;;;;;;;;12.60;72.40;;;;;;5013302;28;19910;-83
2021/09/22 11:41:56;;;;;;;;;;;12.70;72.40;;;;;;5013125;28;19972;-81
2021/09/22 11:44:24;;;;;;;;;;;12.60;72.30;;;;;;5013861;28;19914;-76
2021/09/22 11:46:54;;;;;;;;;;;12.50;71.70;;;;;;5014419;28;20067;-76
2021/09/22 11:49:19;;;;;;;;;;;12.40;72.40;;;;;;5013444;28;19956;-75
2021/09/22 11:51:45;;;;;;;;;;;12.40;72.70;;;;;;5011095;28;20339;-79
2021/09/22 11:54:18;;;;;;;;;;;12.40;72.50;;;;;;5007974;28;19918;-75
2021/09/22 11:56:43;;;;;;;;;;;12.20;73.40;;;;;;5009552;28;19968;-76
2021/09/22 11:59:12;;;;;;;;;;;12.10;72.70;;;;;;5009682;28;19921;-77
2021/09/22 12:01:37;;;;;;;;;;;12.00;73.10;;;;;;5009799;28;20012;-75
2021/09/22 12:04:03;;;;;;;;;;;11.80;73.30;;;;;;5010807;28;20004;-78
2021/09/22 12:06:28;;;;;;;;;;;11.70;73.80;;;;;;5012088;28;19925;-78
2021/09/22 12:08:54;;;;;;;;;;;11.70;74.20;;;;;;5014444;28;20510;-81
2021/09/22 12:11:20;;;;;;;;;;;11.70;74.20;;;;;;5013834;28;19921;-84
2021/09/22 12:13:46;;;;;;;;;;;11.70;74.90;;;;;;5010804;28;19952;-73
2021/09/22 12:16:12;;;;;;;;;;;11.80;74.40;;;;;;5013177;28;19926;-78
2021/09/22 12:18:38;;;;;;;;;;;11.90;74.40;;;;;;5010677;28;20337;-74
2021/09/22 12:21:05;;;;;;;0.10;0.10;;;12.00;74.30;;;;;;5011058;28;20450;-82
2021/09/22 12:23:34;;;;;;;0.10;0.10;;;12.20;74.10;;;;;;5009900;28;20083;-81
2021/09/22 12:26:12;;;;;;;0.10;0.10;;;12.30;73.60;;;;;;5008467;28;20132;-85
2021/09/22 12:28:39;;;;;;;0.10;0.10;;;12.40;73.20;;;;;;5011567;28;20089;-83
2021/09/22 12:31:13;;;;;;;0.10;0.10;;;12.50;73.40;;;;;;5010883;28;20070;-85
2021/09/22 12:33:39;;;;;;;0.10;0.10;;;12.70;73.30;;;;;;5010898;28;20502;-85
2021/09/22 12:36:14;;;;;;;0.10;0.10;;;12.70;73.00;;;;;;5009908;28;20121;-83
2021/09/22 12:38:45;;;;;;;0.00;0.00;;;12.70;72.10;;;;;;5012599;28;20078;-83
2021/09/22 12:41:11;;;;;;;0.10;0.10;;;12.50;72.10;;;;;;5013802;28;20113;-82
2021/09/22 12:43:37;;;;;;;0.10;0.10;;;12.30;72.30;;;;;;5011280;28;20121;-82
2021/09/22 12:46:08;;;;;;;0.10;0.10;;;12.20;72.90;;;;;;5012697;28;20078;-84
2021/09/22 12:48:34;;;;;;;0.10;0.10;;;12.10;73.40;;;;;;5011136;28;20144;-82
2021/09/22 12:51:00;;;;;;;0.10;0.10;;;12.00;73.50;;;;;;5010400;28;20106;-80
2021/09/22 12:53:31;;;;;;;0.10;0.10;;;11.90;73.50;;;;;;5011221;28;20565;-83
2021/09/22 12:55:58;;;;;;;0.10;0.10;;;11.80;74.20;;;;;;5011028;28;20110;-78
2021/09/22 12:58:28;;;;;;;0.10;0.10;;;11.80;74.00;;;;;;5012652;28;20527;-80
2021/09/22 13:00:57;;;;;;;0.10;0.10;;;11.60;74.20;;;;;;5011682;28;20097;-82
2021/09/22 13:03:32;;;;;;;0.10;0.10;;;11.60;74.70;;;;;;5013782;28;20248;-81
2021/09/22 13:06:23;;;;;;;0.10;0.10;;;11.60;75.00;;;;;;5012714;28;20077;-78
2021/09/22 13:08:57;;;;;;;0.10;0.10;;;11.60;75.40;;;;;;5011026;28;20417;-85
2021/09/22 13:11:25;;;;;;;0.10;0.10;;;11.60;75.40;;;;;;5009881;28;20544;-79
2021/09/22 13:14:02;;;;;;;0.00;0.00;;;11.70;75.50;;;;;;5009559;28;20158;-80
2021/09/22 13:16:39;;;;;;;0.10;0.10;;;11.80;75.40;;;;;;5010460;28;20440;-89
2021/09/22 13:19:13;;;;;;;0.10;0.10;;;11.80;75.30;;;;;;5009708;28;20451;-83
2021/09/22 13:21:41;;;;;;;0.10;0.10;;;11.80;75.40;;;;;;5009579;28;20568;-84
2021/09/22 13:24:11;;;;;;;0.10;0.10;;;11.80;75.50;;;;;;5010316;28;20673;-77
2021/09/22 13:26:38;;;;;;;0.10;0.10;;;11.90;75.50;;;;;;5010102;28;20078;-85
2021/09/22 13:29:05;;;;;;;0.00;0.00;;;12.00;75.40;;;;;;5010899;28;20181;-86
2021/09/22 13:31:34;;;;;;;0.10;0.10;;;12.00;75.30;;;;;;5011899;28;20082;-83
2021/09/22 13:34:01;;;;;;;0.10;0.10;;;12.00;75.10;;;;;;5008126;28;20190;-84
2021/09/22 13:36:27;;;;;;;0.08;0.08;;;12.10;75.00;;;;;;5008100;28;20152;-85
2021/09/22 13:38:54;;;;;;;0.03;0.03;;;12.00;74.80;;;;;;5010140;28;20343;-79
2021/09/22 13:41:21;;;;;;;0.10;0.10;;;11.90;74.60;;;;;;5009429;28;20468;-80
2021/09/22 13:43:47;;;;;;;0.10;0.10;;;11.80;74.80;;;;;;5007372;28;20066;-82
2021/09/22 13:46:13;;;;;;;0.10;0.10;;;11.80;75.10;;;;;;5007441;28;20080;-78
2021/09/22 13:48:38;;;;;;;0.10;0.10;;;11.70;75.10;;;;;;5009569;28;20093;-84
2021/09/22 13:51:05;;;;;;;0.10;0.10;;;11.70;75.10;;;;;;5008611;28;20086;-81
2021/09/22 13:53:31;;;;;;;0.10;0.10;;;11.70;75.30;;;;;;5010522;28;20094;-78
2021/09/22 13:55:58;;;;;;;0.10;0.10;;;11.60;75.60;;;;;;5009935;28;20114;-80
2021/09/22 13:58:26;;;;;;;0.05;0.05;;;11.50;75.70;;;;;;5012979;28;20177;-80
2021/09/22 14:00:54;;;;;;;0.10;0.10;;;11.50;76.10;;;;;;5011072;28;20547;-81
2021/09/22 14:03:19;;;;;;;0.00;0.00;;;11.40;76.00;;;;;;5010973;28;20145;-81
2021/09/22 14:05:45;;;;;;;0.00;0.00;;;11.40;76.30;;;;;;5008923;28;20098;-80
2021/09/22 14:08:11;;;;;;;0.10;0.10;;;11.40;76.50;;;;;;5009133;28;20138;-81